sensor_id;sensor_type;location;lat;lon;timestamp;pressure;altitude;pressure_sealevel;temperature;humidity
73220;BME280;61434;43.538;-5.688;2023-03-03T00:01:54;102259.09;;;11.30;55.79
73220;BME280;61434;43.538;-5.688;2023-03-03T00:04:20;102251.16;;;11.56;55.34
73220;BME280;61434;43.538;-5.688;2023-03-03T00:06:45;102254.38;;;11.34;56.11
73220;BME280;61434;43.538;-5.688;2023-03-03T00:09:11;102249.81;;;11.49;55.76
73220;BME280;61434;43.538;-5.688;2023-03-03T00:11:36;102253.00;;;11.55;55.70
73220;BME280;61434;43.538;-5.688;2023-03-03T00:14:02;102257.38;;;11.85;54.91
73220;BME280;61434;43.538;-5.688;2023-03-03T00:16:34;102251.31;;;12.09;54.31
73220;BME280;61434;43.538;-5.688;2023-03-03T00:19:02;102254.88;;;12.09;53.81
73220;BME280;61434;43.538;-5.688;2023-03-03T00:21:34;102253.16;;;12.08;53.83
73220;BME280;61434;43.538;-5.688;2023-03-03T00:26:41;102258.38;;;11.97;53.86
73220;BME280;61434;43.538;-5.688;2023-03-03T00:31:52;102255.88;;;11.52;55.22
73220;BME280;61434;43.538;-5.688;2023-03-03T00:34:26;102261.69;;;11.32;56.14
73220;BME280;61434;43.538;-5.688;2023-03-03T00:36:55;102249.75;;;11.36;55.84
73220;BME280;61434;43.538;-5.688;2023-03-03T00:39:37;102248.28;;;11.30;55.12
73220;BME280;61434;43.538;-5.688;2023-03-03T00:42:13;102253.06;;;10.98;56.38
73220;BME280;61434;43.538;-5.688;2023-03-03T00:44:42;102245.31;;;11.35;55.32
73220;BME280;61434;43.538;-5.688;2023-03-03T00:47:31;102236.91;;;11.40;54.40
73220;BME280;61434;43.538;-5.688;2023-03-03T00:52:43;102235.69;;;11.31;55.12
73220;BME280;61434;43.538;-5.688;2023-03-03T00:55:10;102235.78;;;11.29;55.10
73220;BME280;61434;43.538;-5.688;2023-03-03T00:57:36;102233.97;;;11.16;55.62
73220;BME280;61434;43.538;-5.688;2023-03-03T01:00:03;102233.47;;;11.38;54.96
73220;BME280;61434;43.538;-5.688;2023-03-03T01:02:29;102230.06;;;11.48;54.20
73220;BME280;61434;43.538;-5.688;2023-03-03T01:04:55;102235.41;;;11.63;54.28
73220;BME280;61434;43.538;-5.688;2023-03-03T01:07:21;102241.47;;;11.25;54.92
73220;BME280;61434;43.538;-5.688;2023-03-03T01:09:47;102225.19;;;11.41;54.95
73220;BME280;61434;43.538;-5.688;2023-03-03T01:12:12;102238.16;;;11.48;54.48
73220;BME280;61434;43.538;-5.688;2023-03-03T01:14:38;102227.44;;;11.61;54.20
73220;BME280;61434;43.538;-5.688;2023-03-03T01:17:04;102234.47;;;11.22;54.46
73220;BME280;61434;43.538;-5.688;2023-03-03T01:19:30;102230.19;;;11.33;54.16
73220;BME280;61434;43.538;-5.688;2023-03-03T01:21:56;102231.38;;;11.00;55.23
73220;BME280;61434;43.538;-5.688;2023-03-03T01:24:23;102222.19;;;11.45;54.34
73220;BME280;61434;43.538;-5.688;2023-03-03T01:26:48;102230.50;;;10.99;55.23
73220;BME280;61434;43.538;-5.688;2023-03-03T01:29:14;102227.81;;;10.99;56.33
73220;BME280;61434;43.538;-5.688;2023-03-03T01:31:39;102224.34;;;11.12;55.28
73220;BME280;61434;43.538;-5.688;2023-03-03T01:34:05;61621.03;;;-144.32;100.00
73220;BME280;61434;43.538;-5.688;2023-03-03T01:36:32;61621.03;;;-144.32;100.00
73220;BME280;61434;43.538;-5.688;2023-03-03T01:38:58;61621.03;;;-144.32;100.00
73220;BME280;61434;43.538;-5.688;2023-03-03T01:41:27;61621.03;;;-144.32;100.00
73220;BME280;61434;43.538;-5.688;2023-03-03T01:43:54;61621.03;;;-144.32;100.00
73220;BME280;61434;43.538;-5.688;2023-03-03T01:48:51;61621.03;;;-144.32;100.00
73220;BME280;61434;43.538;-5.688;2023-03-03T01:51:35;61621.03;;;-144.32;100.00
73220;BME280;61434;43.538;-5.688;2023-03-03T01:54:04;61621.03;;;-144.32;100.00
73220;BME280;61434;43.538;-5.688;2023-03-03T01:56:31;61621.03;;;-144.32;100.00
73220;BME280;61434;43.538;-5.688;2023-03-03T02:01:26;61621.03;;;-144.32;100.00
73220;BME280;61434;43.538;-5.688;2023-03-03T02:03:52;61621.03;;;-144.32;100.00
73220;BME280;61434;43.538;-5.688;2023-03-03T02:06:22;61621.03;;;-144.32;100.00
73220;BME280;61434;43.538;-5.688;2023-03-03T02:08:53;61621.03;;;-144.32;100.00
73220;BME280;61434;43.538;-5.688;2023-03-03T02:11:21;61621.03;;;-144.32;100.00
73220;BME280;61434;43.538;-5.688;2023-03-03T02:13:47;61621.03;;;-144.32;100.00
73220;BME280;61434;43.538;-5.688;2023-03-03T02:16:13;61621.03;;;-144.32;100.00
73220;BME280;61434;43.538;-5.688;2023-03-03T02:18:38;61621.03;;;-144.32;100.00
73220;BME280;61434;43.538;-5.688;2023-03-03T02:21:20;61621.03;;;-144.32;100.00
73220;BME280;61434;43.538;-5.688;2023-03-03T02:26:40;61621.03;;;-144.32;100.00
73220;BME280;61434;43.538;-5.688;2023-03-03T02:29:07;61621.03;;;-144.32;100.00
73220;BME280;61434;43.538;-5.688;2023-03-03T02:31:34;61621.03;;;-144.32;100.00
73220;BME280;61434;43.538;-5.688;2023-03-03T02:34:00;61621.03;;;-144.32;100.00
73220;BME280;61434;43.538;-5.688;2023-03-03T02:36:27;61621.03;;;-144.32;100.00
73220;BME280;61434;43.538;-5.688;2023-03-03T02:44:18;102211.34;;;10.17;59.72
73220;BME280;61434;43.538;-5.688;2023-03-03T02:46:45;102205.75;;;10.20;59.66
73220;BME280;61434;43.538;-5.688;2023-03-03T02:49:18;102200.25;;;9.91;59.98
73220;BME280;61434;43.538;-5.688;2023-03-03T02:51:44;102199.78;;;9.85;60.46
73220;BME280;61434;43.538;-5.688;2023-03-03T02:54:11;102196.06;;;9.71;60.93
73220;BME280;61434;43.538;-5.688;2023-03-03T02:56:37;102195.34;;;10.14;60.49
73220;BME280;61434;43.538;-5.688;2023-03-03T02:59:04;102190.81;;;10.14;59.44
73220;BME280;61434;43.538;-5.688;2023-03-03T03:01:30;61621.03;;;-144.32;100.00
73220;BME280;61434;43.538;-5.688;2023-03-03T03:04:11;61621.03;;;-144.32;100.00
73220;BME280;61434;43.538;-5.688;2023-03-03T03:06:38;61621.03;;;-144.32;100.00
73220;BME280;61434;43.538;-5.688;2023-03-03T03:09:06;61621.03;;;-144.32;100.00
73220;BME280;61434;43.538;-5.688;2023-03-03T03:11:32;61621.03;;;-144.32;100.00
73220;BME280;61434;43.538;-5.688;2023-03-03T03:13:59;61621.03;;;-144.32;100.00
73220;BME280;61434;43.538;-5.688;2023-03-03T03:16:25;61621.03;;;-144.32;100.00
73220;BME280;61434;43.538;-5.688;2023-03-03T03:18:51;61621.03;;;-144.32;100.00
73220;BME280;61434;43.538;-5.688;2023-03-03T03:21:16;61621.03;;;-144.32;100.00
73220;BME280;61434;43.538;-5.688;2023-03-03T03:23:42;61621.03;;;-144.32;100.00
73220;BME280;61434;43.538;-5.688;2023-03-03T03:26:08;61621.03;;;-144.32;100.00
73220;BME280;61434;43.538;-5.688;2023-03-03T03:28:34;61621.03;;;-144.32;100.00
73220;BME280;61434;43.538;-5.688;2023-03-03T03:31:02;102173.78;;;10.30;58.72
73220;BME280;61434;43.538;-5.688;2023-03-03T03:33:28;102162.38;;;10.40;57.97
73220;BME280;61434;43.538;-5.688;2023-03-03T03:35:54;61621.03;;;-144.32;100.00
73220;BME280;61434;43.538;-5.688;2023-03-03T03:38:21;61621.03;;;-144.32;100.00
73220;BME280;61434;43.538;-5.688;2023-03-03T03:40:46;102167.28;;;10.62;56.86
73220;BME280;61434;43.538;-5.688;2023-03-03T03:43:12;102161.69;;;10.37;57.14
73220;BME280;61434;43.538;-5.688;2023-03-03T03:45:38;61621.03;;;-144.32;100.00
73220;BME280;61434;43.538;-5.688;2023-03-03T03:48:04;102154.41;;;10.23;57.27
73220;BME280;61434;43.538;-5.688;2023-03-03T03:50:29;61621.03;;;-144.32;100.00
73220;BME280;61434;43.538;-5.688;2023-03-03T03:52:55;61621.03;;;-144.32;100.00
73220;BME280;61434;43.538;-5.688;2023-03-03T03:55:20;61621.03;;;-144.32;100.00
73220;BME280;61434;43.538;-5.688;2023-03-03T03:57:47;61621.03;;;-144.32;100.00
73220;BME280;61434;43.538;-5.688;2023-03-03T04:00:13;61621.03;;;-144.32;100.00
73220;BME280;61434;43.538;-5.688;2023-03-03T04:02:38;61621.03;;;-144.32;100.00
73220;BME280;61434;43.538;-5.688;2023-03-03T04:05:04;61621.03;;;-144.32;100.00
73220;BME280;61434;43.538;-5.688;2023-03-03T04:07:30;61621.03;;;-144.32;100.00
73220;BME280;61434;43.538;-5.688;2023-03-03T04:09:55;61621.03;;;-144.32;100.00
73220;BME280;61434;43.538;-5.688;2023-03-03T04:12:21;102154.41;;;10.23;57.27
73220;BME280;61434;43.538;-5.688;2023-03-03T04:14:46;61621.03;;;-144.32;100.00
73220;BME280;61434;43.538;-5.688;2023-03-03T04:17:19;61621.03;;;-144.32;100.00
73220;BME280;61434;43.538;-5.688;2023-03-03T04:19:45;61621.03;;;-144.32;100.00
73220;BME280;61434;43.538;-5.688;2023-03-03T04:22:11;61621.03;;;-144.32;100.00
73220;BME280;61434;43.538;-5.688;2023-03-03T04:24:41;61621.03;;;-144.32;100.00
73220;BME280;61434;43.538;-5.688;2023-03-03T04:27:06;61621.03;;;-144.32;100.00
73220;BME280;61434;43.538;-5.688;2023-03-03T04:29:34;61621.03;;;-144.32;100.00
73220;BME280;61434;43.538;-5.688;2023-03-03T04:31:59;61621.03;;;-144.32;100.00
73220;BME280;61434;43.538;-5.688;2023-03-03T04:34:25;61621.03;;;-144.32;100.00
73220;BME280;61434;43.538;-5.688;2023-03-03T04:36:51;61621.03;;;-144.32;100.00
73220;BME280;61434;43.538;-5.688;2023-03-03T04:39:16;61621.03;;;-144.32;100.00
73220;BME280;61434;43.538;-5.688;2023-03-03T04:41:41;61621.03;;;-144.32;100.00
73220;BME280;61434;43.538;-5.688;2023-03-03T04:44:07;61621.03;;;-144.32;100.00
73220;BME280;61434;43.538;-5.688;2023-03-03T04:46:32;61621.03;;;-144.32;100.00
73220;BME280;61434;43.538;-5.688;2023-03-03T04:48:58;61621.03;;;-144.32;100.00
73220;BME280;61434;43.538;-5.688;2023-03-03T04:51:24;61621.03;;;-144.32;100.00
73220;BME280;61434;43.538;-5.688;2023-03-03T04:53:49;61621.03;;;-144.32;100.00
73220;BME280;61434;43.538;-5.688;2023-03-03T04:56:14;61621.03;;;-144.32;100.00
73220;BME280;61434;43.538;-5.688;2023-03-03T04:58:40;61621.03;;;-144.32;100.00
73220;BME280;61434;43.538;-5.688;2023-03-03T05:01:06;61621.03;;;-144.32;100.00
73220;BME280;61434;43.538;-5.688;2023-03-03T05:03:31;61621.03;;;-144.32;100.00
73220;BME280;61434;43.538;-5.688;2023-03-03T05:05:57;61621.03;;;-144.32;100.00
73220;BME280;61434;43.538;-5.688;2023-03-03T05:08:22;61621.03;;;-144.32;100.00
73220;BME280;61434;43.538;-5.688;2023-03-03T05:10:52;61621.03;;;-144.32;100.00
73220;BME280;61434;43.538;-5.688;2023-03-03T05:13:18;61621.03;;;-144.32;100.00
73220;BME280;61434;43.538;-5.688;2023-03-03T05:15:51;61621.03;;;-144.32;100.00
73220;BME280;61434;43.538;-5.688;2023-03-03T05:18:18;102152.72;;;9.46;60.23
73220;BME280;61434;43.538;-5.688;2023-03-03T05:20:44;102149.25;;;9.44;60.55
73220;BME280;61434;43.538;-5.688;2023-03-03T05:23:09;102147.50;;;9.43;60.31
73220;BME280;61434;43.538;-5.688;2023-03-03T05:25:35;102148.00;;;9.65;59.36
73220;BME280;61434;43.538;-5.688;2023-03-03T05:28:00;102150.91;;;9.46;59.77
73220;BME280;61434;43.538;-5.688;2023-03-03T05:30:25;102146.06;;;9.21;61.13
73220;BME280;61434;43.538;-5.688;2023-03-03T05:32:51;102148.53;;;9.56;60.39
73220;BME280;61434;43.538;-5.688;2023-03-03T05:35:16;102150.72;;;9.34;60.13
73220;BME280;61434;43.538;-5.688;2023-03-03T05:37:42;102156.88;;;9.04;62.05
73220;BME280;61434;43.538;-5.688;2023-03-03T05:40:14;102159.25;;;9.10;61.40
73220;BME280;61434;43.538;-5.688;2023-03-03T05:42:40;102155.56;;;8.95;62.21
73220;BME280;61434;43.538;-5.688;2023-03-03T05:45:06;102158.66;;;9.21;61.14
73220;BME280;61434;43.538;-5.688;2023-03-03T05:47:32;102157.25;;;9.30;60.67
73220;BME280;61434;43.538;-5.688;2023-03-03T05:49:57;102159.69;;;9.34;60.25
73220;BME280;61434;43.538;-5.688;2023-03-03T05:52:23;102157.25;;;9.45;59.82
73220;BME280;61434;43.538;-5.688;2023-03-03T05:54:49;102159.56;;;9.51;60.88
73220;BME280;61434;43.538;-5.688;2023-03-03T05:57:14;102162.00;;;9.40;60.40
73220;BME280;61434;43.538;-5.688;2023-03-03T05:59:40;102169.47;;;9.35;60.74
73220;BME280;61434;43.538;-5.688;2023-03-03T06:02:05;102166.50;;;9.24;60.21
73220;BME280;61434;43.538;-5.688;2023-03-03T06:04:31;102161.22;;;9.22;60.82
73220;BME280;61434;43.538;-5.688;2023-03-03T06:06:57;102171.22;;;9.20;61.67
73220;BME280;61434;43.538;-5.688;2023-03-03T06:09:22;102168.22;;;9.57;59.89
73220;BME280;61434;43.538;-5.688;2023-03-03T06:11:48;102173.56;;;9.88;59.60
73220;BME280;61434;43.538;-5.688;2023-03-03T06:14:13;102173.63;;;9.87;58.85
73220;BME280;61434;43.538;-5.688;2023-03-03T06:16:39;61621.03;;;-144.32;100.00
73220;BME280;61434;43.538;-5.688;2023-03-03T06:19:04;61621.03;;;-144.32;100.00
73220;BME280;61434;43.538;-5.688;2023-03-03T06:21:30;61621.03;;;-144.32;100.00
73220;BME280;61434;43.538;-5.688;2023-03-03T06:23:56;61621.03;;;-144.32;100.00
73220;BME280;61434;43.538;-5.688;2023-03-03T06:26:21;61621.03;;;-144.32;100.00
73220;BME280;61434;43.538;-5.688;2023-03-03T06:28:47;61621.03;;;-144.32;100.00
73220;BME280;61434;43.538;-5.688;2023-03-03T06:31:14;61621.03;;;-144.32;100.00
73220;BME280;61434;43.538;-5.688;2023-03-03T06:33:39;61621.03;;;-144.32;100.00
73220;BME280;61434;43.538;-5.688;2023-03-03T06:36:07;61621.03;;;-144.32;100.00
73220;BME280;61434;43.538;-5.688;2023-03-03T06:38:32;61621.03;;;-144.32;100.00
73220;BME280;61434;43.538;-5.688;2023-03-03T06:40:57;61621.03;;;-144.32;100.00
73220;BME280;61434;43.538;-5.688;2023-03-03T06:43:26;61621.03;;;-144.32;100.00
73220;BME280;61434;43.538;-5.688;2023-03-03T06:45:51;61621.03;;;-144.32;100.00
73220;BME280;61434;43.538;-5.688;2023-03-03T06:48:17;61621.03;;;-144.32;100.00
73220;BME280;61434;43.538;-5.688;2023-03-03T06:50:42;61621.03;;;-144.32;100.00
73220;BME280;61434;43.538;-5.688;2023-03-03T06:53:13;102173.63;;;9.87;58.85
73220;BME280;61434;43.538;-5.688;2023-03-03T06:55:39;61621.03;;;-144.32;100.00
73220;BME280;61434;43.538;-5.688;2023-03-03T06:58:14;61621.03;;;-144.32;100.00
73220;BME280;61434;43.538;-5.688;2023-03-03T07:00:59;61621.03;;;-144.32;100.00
73220;BME280;61434;43.538;-5.688;2023-03-03T07:03:30;61621.03;;;-144.32;100.00
73220;BME280;61434;43.538;-5.688;2023-03-03T07:05:57;61621.03;;;-144.32;100.00
73220;BME280;61434;43.538;-5.688;2023-03-03T07:08:24;61621.03;;;-144.32;100.00
73220;BME280;61434;43.538;-5.688;2023-03-03T07:10:50;61621.03;;;-144.32;100.00
73220;BME280;61434;43.538;-5.688;2023-03-03T07:13:25;61621.03;;;-144.32;100.00
73220;BME280;61434;43.538;-5.688;2023-03-03T07:15:56;61621.03;;;-144.32;100.00
73220;BME280;61434;43.538;-5.688;2023-03-03T07:21:17;61621.03;;;-144.32;100.00
73220;BME280;61434;43.538;-5.688;2023-03-03T07:23:44;61621.03;;;-144.32;100.00
73220;BME280;61434;43.538;-5.688;2023-03-03T07:26:16;61621.03;;;-144.32;100.00
73220;BME280;61434;43.538;-5.688;2023-03-03T07:28:51;61621.03;;;-144.32;100.00
73220;BME280;61434;43.538;-5.688;2023-03-03T07:31:36;61621.03;;;-144.32;100.00
73220;BME280;61434;43.538;-5.688;2023-03-03T07:37:11;61621.03;;;-144.32;100.00
73220;BME280;61434;43.538;-5.688;2023-03-03T07:39:43;61621.03;;;-144.32;100.00
73220;BME280;61434;43.538;-5.688;2023-03-03T07:42:22;102243.22;;;10.09;57.80
73220;BME280;61434;43.538;-5.688;2023-03-03T07:44:53;61621.03;;;-144.32;100.00
73220;BME280;61434;43.538;-5.688;2023-03-03T07:47:30;61621.03;;;-144.32;100.00
73220;BME280;61434;43.538;-5.688;2023-03-03T07:50:06;61621.03;;;-144.32;100.00
73220;BME280;61434;43.538;-5.688;2023-03-03T07:58:14;61621.03;;;-144.32;100.00
73220;BME280;61434;43.538;-5.688;2023-03-03T08:03:16;61621.03;;;-144.32;100.00
73220;BME280;61434;43.538;-5.688;2023-03-03T08:05:46;61621.03;;;-144.32;100.00
73220;BME280;61434;43.538;-5.688;2023-03-03T08:08:38;61621.03;;;-144.32;100.00
73220;BME280;61434;43.538;-5.688;2023-03-03T08:11:07;61621.03;;;-144.32;100.00
73220;BME280;61434;43.538;-5.688;2023-03-03T08:18:36;61621.03;;;-144.32;100.00
73220;BME280;61434;43.538;-5.688;2023-03-03T08:21:22;61621.03;;;-144.32;100.00
73220;BME280;61434;43.538;-5.688;2023-03-03T08:23:49;61621.03;;;-144.32;100.00
73220;BME280;61434;43.538;-5.688;2023-03-03T08:26:17;61621.03;;;-144.32;100.00
73220;BME280;61434;43.538;-5.688;2023-03-03T08:28:43;61621.03;;;-144.32;100.00
73220;BME280;61434;43.538;-5.688;2023-03-03T08:31:09;61621.03;;;-144.32;100.00
73220;BME280;61434;43.538;-5.688;2023-03-03T08:33:35;61621.03;;;-144.32;100.00
73220;BME280;61434;43.538;-5.688;2023-03-03T08:36:00;61621.03;;;-144.32;100.00
73220;BME280;61434;43.538;-5.688;2023-03-03T08:38:26;61621.03;;;-144.32;100.00
73220;BME280;61434;43.538;-5.688;2023-03-03T08:40:51;61621.03;;;-144.32;100.00
73220;BME280;61434;43.538;-5.688;2023-03-03T08:43:17;61621.03;;;-144.32;100.00
73220;BME280;61434;43.538;-5.688;2023-03-03T08:45:50;61621.03;;;-144.32;100.00
73220;BME280;61434;43.538;-5.688;2023-03-03T08:48:16;61621.03;;;-144.32;100.00
73220;BME280;61434;43.538;-5.688;2023-03-03T08:50:42;61621.03;;;-144.32;100.00
73220;BME280;61434;43.538;-5.688;2023-03-03T08:53:09;61621.03;;;-144.32;100.00
73220;BME280;61434;43.538;-5.688;2023-03-03T08:55:35;61621.03;;;-144.32;100.00
73220;BME280;61434;43.538;-5.688;2023-03-03T08:58:00;61621.03;;;-144.32;100.00
73220;BME280;61434;43.538;-5.688;2023-03-03T09:00:26;61621.03;;;-144.32;100.00
73220;BME280;61434;43.538;-5.688;2023-03-03T09:02:52;61621.03;;;-144.32;100.00
73220;BME280;61434;43.538;-5.688;2023-03-03T09:05:19;61621.03;;;-144.32;100.00
73220;BME280;61434;43.538;-5.688;2023-03-03T09:07:46;61621.03;;;-144.32;100.00
73220;BME280;61434;43.538;-5.688;2023-03-03T09:10:16;61621.03;;;-144.32;100.00
73220;BME280;61434;43.538;-5.688;2023-03-03T09:12:44;61621.03;;;-144.32;100.00
73220;BME280;61434;43.538;-5.688;2023-03-03T09:17:47;61621.03;;;-144.32;100.00
73220;BME280;61434;43.538;-5.688;2023-03-03T09:20:27;61621.03;;;-144.32;100.00
73220;BME280;61434;43.538;-5.688;2023-03-03T09:22:54;61621.03;;;-144.32;100.00
73220;BME280;61434;43.538;-5.688;2023-03-03T09:25:36;61621.03;;;-144.32;100.00
73220;BME280;61434;43.538;-5.688;2023-03-03T09:28:02;61621.03;;;-144.32;100.00
73220;BME280;61434;43.538;-5.688;2023-03-03T09:30:35;61621.03;;;-144.32;100.00
73220;BME280;61434;43.538;-5.688;2023-03-03T09:33:18;61621.03;;;-144.32;100.00
73220;BME280;61434;43.538;-5.688;2023-03-03T09:35:49;61621.03;;;-144.32;100.00
73220;BME280;61434;43.538;-5.688;2023-03-03T09:38:26;61621.03;;;-144.32;100.00
73220;BME280;61434;43.538;-5.688;2023-03-03T09:41:35;61621.03;;;-144.32;100.00
73220;BME280;61434;43.538;-5.688;2023-03-03T09:44:11;61621.03;;;-144.32;100.00
73220;BME280;61434;43.538;-5.688;2023-03-03T09:52:19;61621.03;;;-144.32;100.00
73220;BME280;61434;43.538;-5.688;2023-03-03T10:00:08;61621.03;;;-144.32;100.00
73220;BME280;61434;43.538;-5.688;2023-03-03T10:08:02;61621.03;;;-144.32;100.00
73220;BME280;61434;43.538;-5.688;2023-03-03T10:18:42;61621.03;;;-144.32;100.00
73220;BME280;61434;43.538;-5.688;2023-03-03T10:21:20;61621.03;;;-144.32;100.00
73220;BME280;61434;43.538;-5.688;2023-03-03T10:29:00;61621.03;;;-144.32;100.00
73220;BME280;61434;43.538;-5.688;2023-03-03T10:37:31;61621.03;;;-144.32;100.00
73220;BME280;61434;43.538;-5.688;2023-03-03T10:53:34;61621.03;;;-144.32;100.00
73220;BME280;61434;43.538;-5.688;2023-03-03T10:59:28;61621.03;;;-144.32;100.00
73220;BME280;61434;43.538;-5.688;2023-03-03T11:02:02;61621.03;;;-144.32;100.00
73220;BME280;61434;43.538;-5.688;2023-03-03T11:07:26;61621.03;;;-144.32;100.00
73220;BME280;61434;43.538;-5.688;2023-03-03T11:10:14;61621.03;;;-144.32;100.00
73220;BME280;61434;43.538;-5.688;2023-03-03T11:16:11;61621.03;;;-144.32;100.00
73220;BME280;61434;43.538;-5.688;2023-03-03T11:21:30;61621.03;;;-144.32;100.00
73220;BME280;61434;43.538;-5.688;2023-03-03T11:24:23;61621.03;;;-144.32;100.00
73220;BME280;61434;43.538;-5.688;2023-03-03T11:29:46;61621.03;;;-144.32;100.00
73220;BME280;61434;43.538;-5.688;2023-03-03T11:37:28;61621.03;;;-144.32;100.00
73220;BME280;61434;43.538;-5.688;2023-03-03T11:40:27;61621.03;;;-144.32;100.00
73220;BME280;61434;43.538;-5.688;2023-03-03T11:45:47;61621.03;;;-144.32;100.00
73220;BME280;61434;43.538;-5.688;2023-03-03T11:48:20;61621.03;;;-144.32;100.00
73220;BME280;61434;43.538;-5.688;2023-03-03T11:59:01;61621.03;;;-144.32;100.00
73220;BME280;61434;43.538;-5.688;2023-03-03T12:01:52;61621.03;;;-144.32;100.00
73220;BME280;61434;43.538;-5.688;2023-03-03T12:04:33;61621.03;;;-144.32;100.00
73220;BME280;61434;43.538;-5.688;2023-03-03T12:12:47;61621.03;;;-144.32;100.00
73220;BME280;61434;43.538;-5.688;2023-03-03T12:15:40;61621.03;;;-144.32;100.00
73220;BME280;61434;43.538;-5.688;2023-03-03T12:40:20;61621.03;;;-144.32;100.00
73220;BME280;61434;43.538;-5.688;2023-03-03T12:43:12;61621.03;;;-144.32;100.00
73220;BME280;61434;43.538;-5.688;2023-03-03T12:45:49;61621.03;;;-144.32;100.00
73220;BME280;61434;43.538;-5.688;2023-03-03T12:48:26;61621.03;;;-144.32;100.00
73220;BME280;61434;43.538;-5.688;2023-03-03T12:56:51;61621.03;;;-144.32;100.00
73220;BME280;61434;43.538;-5.688;2023-03-03T12:59:34;61621.03;;;-144.32;100.00
73220;BME280;61434;43.538;-5.688;2023-03-03T13:13:14;61621.03;;;-144.32;100.00
73220;BME280;61434;43.538;-5.688;2023-03-03T13:21:38;61621.03;;;-144.32;100.00
73220;BME280;61434;43.538;-5.688;2023-03-03T13:26:57;61621.03;;;-144.32;100.00
73220;BME280;61434;43.538;-5.688;2023-03-03T13:29:29;61621.03;;;-144.32;100.00
73220;BME280;61434;43.538;-5.688;2023-03-03T13:37:35;61621.03;;;-144.32;100.00
73220;BME280;61434;43.538;-5.688;2023-03-03T13:42:46;61621.03;;;-144.32;100.00
73220;BME280;61434;43.538;-5.688;2023-03-03T13:50:50;61621.03;;;-144.32;100.00
73220;BME280;61434;43.538;-5.688;2023-03-03T14:04:34;102160.09;;;14.10;48.93
73220;BME280;61434;43.538;-5.688;2023-03-03T14:07:12;102153.69;;;14.22;48.37
73220;BME280;61434;43.538;-5.688;2023-03-03T14:12:25;102153.97;;;14.19;48.36
73220;BME280;61434;43.538;-5.688;2023-03-03T14:15:17;102145.34;;;14.36;48.57
73220;BME280;61434;43.538;-5.688;2023-03-03T14:18:02;102150.47;;;14.06;49.32
73220;BME280;61434;43.538;-5.688;2023-03-03T14:20:39;102143.56;;;14.02;48.46
73220;BME280;61434;43.538;-5.688;2023-03-03T14:23:24;102142.41;;;14.28;48.01
73220;BME280;61434;43.538;-5.688;2023-03-03T14:26:00;102142.47;;;14.04;46.58
73220;BME280;61434;43.538;-5.688;2023-03-03T14:28:46;102143.59;;;13.78;47.22
73220;BME280;61434;43.538;-5.688;2023-03-03T14:31:25;102150.66;;;13.92;46.37
73220;BME280;61434;43.538;-5.688;2023-03-03T14:36:38;102141.13;;;14.21;45.80
73220;BME280;61434;43.538;-5.688;2023-03-03T14:41:54;61621.03;;;-144.32;100.00
73220;BME280;61434;43.538;-5.688;2023-03-03T14:44:31;61621.03;;;-144.32;100.00
73220;BME280;61434;43.538;-5.688;2023-03-03T14:47:22;61621.03;;;-144.32;100.00
73220;BME280;61434;43.538;-5.688;2023-03-03T14:49:50;61621.03;;;-144.32;100.00
73220;BME280;61434;43.538;-5.688;2023-03-03T14:54:49;61621.03;;;-144.32;100.00
73220;BME280;61434;43.538;-5.688;2023-03-03T15:00:01;61621.03;;;-144.32;100.00
73220;BME280;61434;43.538;-5.688;2023-03-03T15:02:35;61621.03;;;-144.32;100.00
73220;BME280;61434;43.538;-5.688;2023-03-03T15:05:22;61621.03;;;-144.32;100.00
73220;BME280;61434;43.538;-5.688;2023-03-03T15:08:08;61621.03;;;-144.32;100.00
73220;BME280;61434;43.538;-5.688;2023-03-03T15:10:43;61621.03;;;-144.32;100.00
73220;BME280;61434;43.538;-5.688;2023-03-03T15:18:25;61621.03;;;-144.32;100.00
73220;BME280;61434;43.538;-5.688;2023-03-03T15:21:20;61621.03;;;-144.32;100.00
73220;BME280;61434;43.538;-5.688;2023-03-03T15:23:58;61621.03;;;-144.32;100.00
73220;BME280;61434;43.538;-5.688;2023-03-03T15:34:56;61621.03;;;-144.32;100.00
73220;BME280;61434;43.538;-5.688;2023-03-03T15:40:29;102113.94;;;14.34;44.83
73220;BME280;61434;43.538;-5.688;2023-03-03T15:45:31;61621.03;;;-144.32;100.00
73220;BME280;61434;43.538;-5.688;2023-03-03T15:51:19;61621.03;;;-144.32;100.00
73220;BME280;61434;43.538;-5.688;2023-03-03T15:54:09;61621.03;;;-144.32;100.00
73220;BME280;61434;43.538;-5.688;2023-03-03T15:56:45;61621.03;;;-144.32;100.00
73220;BME280;61434;43.538;-5.688;2023-03-03T16:02:47;61621.03;;;-144.32;100.00
73220;BME280;61434;43.538;-5.688;2023-03-03T16:05:33;61621.03;;;-144.32;100.00
73220;BME280;61434;43.538;-5.688;2023-03-03T16:08:40;61621.03;;;-144.32;100.00
73220;BME280;61434;43.538;-5.688;2023-03-03T16:11:23;61621.03;;;-144.32;100.00
73220;BME280;61434;43.538;-5.688;2023-03-03T16:16:42;102119.50;;;14.44;48.01
73220;BME280;61434;43.538;-5.688;2023-03-03T16:19:37;61621.03;;;-144.32;100.00
73220;BME280;61434;43.538;-5.688;2023-03-03T16:22:37;61621.03;;;-144.32;100.00
73220;BME280;61434;43.538;-5.688;2023-03-03T16:25:19;61621.03;;;-144.32;100.00
73220;BME280;61434;43.538;-5.688;2023-03-03T16:30:49;61621.03;;;-144.32;100.00
73220;BME280;61434;43.538;-5.688;2023-03-03T16:36:51;61621.03;;;-144.32;100.00
73220;BME280;61434;43.538;-5.688;2023-03-03T16:42:00;61621.03;;;-144.32;100.00
73220;BME280;61434;43.538;-5.688;2023-03-03T16:44:37;61621.03;;;-144.32;100.00
73220;BME280;61434;43.538;-5.688;2023-03-03T16:48:01;61621.03;;;-144.32;100.00
73220;BME280;61434;43.538;-5.688;2023-03-03T16:53:06;102121.28;;;14.09;49.53
73220;BME280;61434;43.538;-5.688;2023-03-03T17:04:53;102130.09;;;13.65;49.73
73220;BME280;61434;43.538;-5.688;2023-03-03T17:07:37;61621.03;;;-144.32;100.00
73220;BME280;61434;43.538;-5.688;2023-03-03T17:13:10;61621.03;;;-144.32;100.00
73220;BME280;61434;43.538;-5.688;2023-03-03T17:15:56;61621.03;;;-144.32;100.00